sensor_id;sensor_type;location;lat;lon;timestamp;P1;durP1;ratioP1;P2;durP2;ratioP2
12567;SDS011;6349;50.904;6.136;2022-11-15T00:01:07;6.70;;;5.67;;
12567;SDS011;6349;50.904;6.136;2022-11-15T00:03:08;6.43;;;5.17;;
12567;SDS011;6349;50.904;6.136;2022-11-15T00:05:09;5.67;;;5.07;;
12567;SDS011;6349;50.904;6.136;2022-11-15T00:07:09;5.57;;;5.07;;
12567;SDS011;6349;50.904;6.136;2022-11-15T00:09:10;6.63;;;5.73;;
12567;SDS011;6349;50.904;6.136;2022-11-15T00:11:11;6.23;;;5.53;;
12567;SDS011;6349;50.904;6.136;2022-11-15T00:13:12;6.70;;;5.50;;
12567;SDS011;6349;50.904;6.136;2022-11-15T00:15:13;5.93;;;5.27;;
12567;SDS011;6349;50.904;6.136;2022-11-15T00:17:14;6.27;;;5.20;;
12567;SDS011;6349;50.904;6.136;2022-11-15T00:19:14;6.80;;;5.50;;
12567;SDS011;6349;50.904;6.136;2022-11-15T00:21:15;8.33;;;5.43;;
12567;SDS011;6349;50.904;6.136;2022-11-15T00:23:16;6.53;;;5.50;;
12567;SDS011;6349;50.904;6.136;2022-11-15T00:25:16;6.40;;;4.77;;
12567;SDS011;6349;50.904;6.136;2022-11-15T00:27:17;6.97;;;4.87;;
12567;SDS011;6349;50.904;6.136;2022-11-15T00:29:17;5.63;;;4.53;;
12567;SDS011;6349;50.904;6.136;2022-11-15T00:31:18;6.97;;;5.10;;
12567;SDS011;6349;50.904;6.136;2022-11-15T00:33:18;6.93;;;5.00;;
12567;SDS011;6349;50.904;6.136;2022-11-15T00:35:19;5.70;;;4.90;;
12567;SDS011;6349;50.904;6.136;2022-11-15T00:37:20;6.77;;;4.87;;
12567;SDS011;6349;50.904;6.136;2022-11-15T00:39:21;5.10;;;4.50;;
12567;SDS011;6349;50.904;6.136;2022-11-15T00:41:22;5.00;;;4.47;;
12567;SDS011;6349;50.904;6.136;2022-11-15T00:43:22;5.90;;;4.20;;
12567;SDS011;6349;50.904;6.136;2022-11-15T00:45:23;6.23;;;4.20;;
12567;SDS011;6349;50.904;6.136;2022-11-15T00:47:24;5.20;;;4.27;;
12567;SDS011;6349;50.904;6.136;2022-11-15T00:49:25;5.60;;;4.80;;
12567;SDS011;6349;50.904;6.136;2022-11-15T00:51:25;6.87;;;4.33;;
12567;SDS011;6349;50.904;6.136;2022-11-15T00:53:26;4.90;;;4.10;;
12567;SDS011;6349;50.904;6.136;2022-11-15T00:55:27;4.40;;;3.97;;
12567;SDS011;6349;50.904;6.136;2022-11-15T00:57:27;5.23;;;3.93;;
12567;SDS011;6349;50.904;6.136;2022-11-15T00:59:28;5.90;;;4.00;;
12567;SDS011;6349;50.904;6.136;2022-11-15T01:01:28;4.60;;;4.20;;
12567;SDS011;6349;50.904;6.136;2022-11-15T01:03:31;4.17;;;3.77;;
12567;SDS011;6349;50.904;6.136;2022-11-15T01:05:33;4.67;;;4.20;;
12567;SDS011;6349;50.904;6.136;2022-11-15T01:07:33;4.80;;;4.20;;
12567;SDS011;6349;50.904;6.136;2022-11-15T01:09:34;4.90;;;3.57;;
12567;SDS011;6349;50.904;6.136;2022-11-15T01:11:34;4.10;;;3.70;;
12567;SDS011;6349;50.904;6.136;2022-11-15T01:13:35;4.70;;;3.80;;
12567;SDS011;6349;50.904;6.136;2022-11-15T01:15:39;4.13;;;3.73;;
12567;SDS011;6349;50.904;6.136;2022-11-15T01:17:41;5.23;;;3.60;;
12567;SDS011;6349;50.904;6.136;2022-11-15T01:19:41;4.50;;;3.37;;
12567;SDS011;6349;50.904;6.136;2022-11-15T01:21:42;3.50;;;3.20;;
12567;SDS011;6349;50.904;6.136;2022-11-15T01:23:42;3.50;;;3.20;;
12567;SDS011;6349;50.904;6.136;2022-11-15T01:25:43;3.27;;;3.03;;
12567;SDS011;6349;50.904;6.136;2022-11-15T01:27:44;3.60;;;3.23;;
12567;SDS011;6349;50.904;6.136;2022-11-15T01:29:44;3.97;;;3.07;;
12567;SDS011;6349;50.904;6.136;2022-11-15T01:31:45;3.73;;;2.90;;
12567;SDS011;6349;50.904;6.136;2022-11-15T01:33:46;4.63;;;2.90;;
12567;SDS011;6349;50.904;6.136;2022-11-15T01:35:47;3.20;;;2.83;;
12567;SDS011;6349;50.904;6.136;2022-11-15T01:37:48;4.13;;;3.17;;
12567;SDS011;6349;50.904;6.136;2022-11-15T01:39:49;4.10;;;2.80;;
12567;SDS011;6349;50.904;6.136;2022-11-15T01:41:49;3.90;;;2.90;;
12567;SDS011;6349;50.904;6.136;2022-11-15T01:43:51;4.10;;;3.00;;
12567;SDS011;6349;50.904;6.136;2022-11-15T01:45:58;3.07;;;2.67;;
12567;SDS011;6349;50.904;6.136;2022-11-15T01:48:02;2.63;;;2.33;;
12567;SDS011;6349;50.904;6.136;2022-11-15T01:50:04;3.27;;;2.60;;
12567;SDS011;6349;50.904;6.136;2022-11-15T01:52:09;2.60;;;2.40;;
12567;SDS011;6349;50.904;6.136;2022-11-15T01:54:14;3.40;;;2.63;;
12567;SDS011;6349;50.904;6.136;2022-11-15T01:56:18;3.13;;;2.80;;
12567;SDS011;6349;50.904;6.136;2022-11-15T01:58:22;3.37;;;2.73;;
12567;SDS011;6349;50.904;6.136;2022-11-15T02:00:22;3.20;;;2.60;;
12567;SDS011;6349;50.904;6.136;2022-11-15T02:02:23;3.37;;;2.90;;
12567;SDS011;6349;50.904;6.136;2022-11-15T02:04:24;3.60;;;2.77;;
12567;SDS011;6349;50.904;6.136;2022-11-15T02:06:28;5.23;;;3.50;;
12567;SDS011;6349;50.904;6.136;2022-11-15T02:08:29;3.20;;;2.90;;
12567;SDS011;6349;50.904;6.136;2022-11-15T02:10:29;5.27;;;2.83;;
12567;SDS011;6349;50.904;6.136;2022-11-15T02:12:30;3.30;;;3.00;;
12567;SDS011;6349;50.904;6.136;2022-11-15T02:14:31;3.40;;;3.10;;
12567;SDS011;6349;50.904;6.136;2022-11-15T02:16:51;3.13;;;2.73;;
12567;SDS011;6349;50.904;6.136;2022-11-15T02:21:49;3.37;;;3.10;;
12567;SDS011;6349;50.904;6.136;2022-11-15T02:24:09;3.10;;;2.80;;
12567;SDS011;6349;50.904;6.136;2022-11-15T02:29:06;3.10;;;2.80;;
12567;SDS011;6349;50.904;6.136;2022-11-15T02:31:11;3.33;;;3.00;;
12567;SDS011;6349;50.904;6.136;2022-11-15T02:33:35;3.83;;;3.20;;
12567;SDS011;6349;50.904;6.136;2022-11-15T02:35:59;3.33;;;3.03;;
12567;SDS011;6349;50.904;6.136;2022-11-15T02:38:07;3.37;;;2.70;;
12567;SDS011;6349;50.904;6.136;2022-11-15T02:40:31;3.60;;;2.87;;
12567;SDS011;6349;50.904;6.136;2022-11-15T02:42:40;3.30;;;3.00;;
12567;SDS011;6349;50.904;6.136;2022-11-15T02:45:08;3.73;;;2.83;;
12567;SDS011;6349;50.904;6.136;2022-11-15T02:47:16;3.60;;;3.30;;
12567;SDS011;6349;50.904;6.136;2022-11-15T02:49:17;3.00;;;2.70;;
12567;SDS011;6349;50.904;6.136;2022-11-15T02:51:18;3.33;;;2.90;;
12567;SDS011;6349;50.904;6.136;2022-11-15T02:53:24;3.43;;;2.97;;
12567;SDS011;6349;50.904;6.136;2022-11-15T02:55:33;3.10;;;2.80;;
12567;SDS011;6349;50.904;6.136;2022-11-15T03:00:01;4.40;;;2.90;;
12567;SDS011;6349;50.904;6.136;2022-11-15T03:04:43;3.67;;;3.17;;
12567;SDS011;6349;50.904;6.136;2022-11-15T03:06:55;3.40;;;3.10;;
12567;SDS011;6349;50.904;6.136;2022-11-15T03:09:11;4.60;;;3.30;;
12567;SDS011;6349;50.904;6.136;2022-11-15T03:11:36;4.83;;;3.00;;
12567;SDS011;6349;50.904;6.136;2022-11-15T03:13:47;5.13;;;3.30;;
12567;SDS011;6349;50.904;6.136;2022-11-15T03:16:09;3.20;;;2.90;;
12567;SDS011;6349;50.904;6.136;2022-11-15T03:18:21;3.90;;;3.60;;
12567;SDS011;6349;50.904;6.136;2022-11-15T03:20:30;3.00;;;2.80;;
12567;SDS011;6349;50.904;6.136;2022-11-15T03:22:35;3.33;;;3.03;;
12567;SDS011;6349;50.904;6.136;2022-11-15T03:24:37;3.40;;;3.10;;
12567;SDS011;6349;50.904;6.136;2022-11-15T03:26:38;4.17;;;3.00;;
12567;SDS011;6349;50.904;6.136;2022-11-15T03:28:46;3.00;;;2.77;;
12567;SDS011;6349;50.904;6.136;2022-11-15T03:30:51;3.57;;;2.97;;
12567;SDS011;6349;50.904;6.136;2022-11-15T03:32:55;4.90;;;3.30;;
12567;SDS011;6349;50.904;6.136;2022-11-15T03:35:05;3.90;;;2.70;;
12567;SDS011;6349;50.904;6.136;2022-11-15T03:37:10;3.17;;;2.87;;
12567;SDS011;6349;50.904;6.136;2022-11-15T03:39:13;3.27;;;2.97;;
12567;SDS011;6349;50.904;6.136;2022-11-15T03:41:23;2.90;;;2.60;;
12567;SDS011;6349;50.904;6.136;2022-11-15T03:44:04;2.97;;;2.60;;
12567;SDS011;6349;50.904;6.136;2022-11-15T03:45:55;2.80;;;2.60;;
12567;SDS011;6349;50.904;6.136;2022-11-15T03:48:02;2.67;;;2.47;;
12567;SDS011;6349;50.904;6.136;2022-11-15T03:50:19;3.07;;;2.07;;
12567;SDS011;6349;50.904;6.136;2022-11-15T03:52:21;2.43;;;2.23;;
12567;SDS011;6349;50.904;6.136;2022-11-15T03:54:22;3.07;;;2.30;;
12567;SDS011;6349;50.904;6.136;2022-11-15T03:56:23;2.50;;;2.30;;
12567;SDS011;6349;50.904;6.136;2022-11-15T03:58:23;2.30;;;2.10;;
12567;SDS011;6349;50.904;6.136;2022-11-15T04:00:24;2.23;;;2.00;;
12567;SDS011;6349;50.904;6.136;2022-11-15T04:02:25;1.87;;;1.77;;
12567;SDS011;6349;50.904;6.136;2022-11-15T04:04:25;2.17;;;2.00;;
12567;SDS011;6349;50.904;6.136;2022-11-15T04:06:26;2.13;;;1.93;;
12567;SDS011;6349;50.904;6.136;2022-11-15T04:08:26;1.80;;;1.70;;
12567;SDS011;6349;50.904;6.136;2022-11-15T04:10:27;1.90;;;1.77;;
12567;SDS011;6349;50.904;6.136;2022-11-15T04:12:31;2.23;;;1.80;;
12567;SDS011;6349;50.904;6.136;2022-11-15T04:14:33;1.97;;;1.63;;
12567;SDS011;6349;50.904;6.136;2022-11-15T04:16:33;1.90;;;1.80;;
12567;SDS011;6349;50.904;6.136;2022-11-15T04:18:34;2.03;;;1.80;;
12567;SDS011;6349;50.904;6.136;2022-11-15T04:20:34;1.70;;;1.60;;
12567;SDS011;6349;50.904;6.136;2022-11-15T04:22:55;1.80;;;1.70;;
12567;SDS011;6349;50.904;6.136;2022-11-15T04:25:17;1.50;;;1.40;;
12567;SDS011;6349;50.904;6.136;2022-11-15T04:27:17;1.70;;;1.60;;
12567;SDS011;6349;50.904;6.136;2022-11-15T04:29:18;1.50;;;1.40;;
12567;SDS011;6349;50.904;6.136;2022-11-15T04:31:34;1.50;;;1.40;;
12567;SDS011;6349;50.904;6.136;2022-11-15T04:33:34;1.60;;;1.30;;
12567;SDS011;6349;50.904;6.136;2022-11-15T04:35:35;1.40;;;1.30;;
12567;SDS011;6349;50.904;6.136;2022-11-15T04:37:35;1.47;;;1.37;;
12567;SDS011;6349;50.904;6.136;2022-11-15T04:39:36;1.67;;;1.53;;
12567;SDS011;6349;50.904;6.136;2022-11-15T04:41:37;1.17;;;1.13;;
12567;SDS011;6349;50.904;6.136;2022-11-15T04:43:37;1.33;;;1.23;;
12567;SDS011;6349;50.904;6.136;2022-11-15T04:45:38;1.00;;;1.00;;
12567;SDS011;6349;50.904;6.136;2022-11-15T04:47:38;1.20;;;1.10;;
12567;SDS011;6349;50.904;6.136;2022-11-15T04:49:39;1.53;;;1.43;;
12567;SDS011;6349;50.904;6.136;2022-11-15T04:51:39;1.27;;;1.17;;
12567;SDS011;6349;50.904;6.136;2022-11-15T04:53:40;1.30;;;1.20;;
12567;SDS011;6349;50.904;6.136;2022-11-15T04:55:43;1.40;;;1.30;;
12567;SDS011;6349;50.904;6.136;2022-11-15T04:57:45;1.63;;;1.33;;
12567;SDS011;6349;50.904;6.136;2022-11-15T04:59:46;1.40;;;1.30;;
12567;SDS011;6349;50.904;6.136;2022-11-15T05:01:46;1.70;;;1.60;;
12567;SDS011;6349;50.904;6.136;2022-11-15T05:03:47;1.23;;;1.13;;
12567;SDS011;6349;50.904;6.136;2022-11-15T05:06:07;1.87;;;1.20;;
12567;SDS011;6349;50.904;6.136;2022-11-15T05:08:08;1.30;;;1.20;;
12567;SDS011;6349;50.904;6.136;2022-11-15T05:10:08;1.10;;;1.00;;
12567;SDS011;6349;50.904;6.136;2022-11-15T05:12:09;0.90;;;0.90;;
12567;SDS011;6349;50.904;6.136;2022-11-15T05:14:10;1.60;;;1.10;;
12567;SDS011;6349;50.904;6.136;2022-11-15T05:16:10;1.10;;;1.00;;
12567;SDS011;6349;50.904;6.136;2022-11-15T05:18:11;0.90;;;0.90;;
12567;SDS011;6349;50.904;6.136;2022-11-15T05:20:12;0.97;;;0.97;;
12567;SDS011;6349;50.904;6.136;2022-11-15T05:22:13;1.00;;;0.77;;
12567;SDS011;6349;50.904;6.136;2022-11-15T05:24:13;0.97;;;0.80;;
12567;SDS011;6349;50.904;6.136;2022-11-15T05:26:14;0.83;;;0.83;;
12567;SDS011;6349;50.904;6.136;2022-11-15T05:28:17;1.17;;;0.80;;
12567;SDS011;6349;50.904;6.136;2022-11-15T05:30:18;0.60;;;0.60;;
12567;SDS011;6349;50.904;6.136;2022-11-15T05:32:18;1.60;;;0.80;;
12567;SDS011;6349;50.904;6.136;2022-11-15T05:34:19;0.70;;;0.70;;
12567;SDS011;6349;50.904;6.136;2022-11-15T05:36:27;1.00;;;0.83;;
12567;SDS011;6349;50.904;6.136;2022-11-15T05:38:41;0.80;;;0.80;;
12567;SDS011;6349;50.904;6.136;2022-11-15T05:40:42;0.80;;;0.77;;
12567;SDS011;6349;50.904;6.136;2022-11-15T05:42:42;0.70;;;0.70;;
12567;SDS011;6349;50.904;6.136;2022-11-15T05:44:46;0.70;;;0.70;;
12567;SDS011;6349;50.904;6.136;2022-11-15T05:46:49;0.97;;;0.70;;
12567;SDS011;6349;50.904;6.136;2022-11-15T05:48:53;0.73;;;0.73;;
12567;SDS011;6349;50.904;6.136;2022-11-15T05:50:55;0.87;;;0.87;;
12567;SDS011;6349;50.904;6.136;2022-11-15T05:52:56;0.90;;;0.70;;
12567;SDS011;6349;50.904;6.136;2022-11-15T05:54:57;1.03;;;0.63;;
12567;SDS011;6349;50.904;6.136;2022-11-15T05:56:58;0.77;;;0.70;;
12567;SDS011;6349;50.904;6.136;2022-11-15T05:59:00;0.70;;;0.70;;
12567;SDS011;6349;50.904;6.136;2022-11-15T06:01:01;0.77;;;0.73;;
12567;SDS011;6349;50.904;6.136;2022-11-15T06:03:01;1.00;;;0.60;;
12567;SDS011;6349;50.904;6.136;2022-11-15T06:05:02;0.80;;;0.80;;
12567;SDS011;6349;50.904;6.136;2022-11-15T06:07:03;0.97;;;0.70;;
12567;SDS011;6349;50.904;6.136;2022-11-15T06:09:03;0.60;;;0.60;;
12567;SDS011;6349;50.904;6.136;2022-11-15T06:11:05;0.73;;;0.70;;
12567;SDS011;6349;50.904;6.136;2022-11-15T06:13:06;0.60;;;0.60;;
12567;SDS011;6349;50.904;6.136;2022-11-15T06:15:07;0.60;;;0.60;;
12567;SDS011;6349;50.904;6.136;2022-11-15T06:17:08;0.60;;;0.60;;
12567;SDS011;6349;50.904;6.136;2022-11-15T06:19:08;0.87;;;0.60;;
12567;SDS011;6349;50.904;6.136;2022-11-15T06:21:09;1.07;;;0.50;;
12567;SDS011;6349;50.904;6.136;2022-11-15T06:23:09;0.97;;;0.60;;
12567;SDS011;6349;50.904;6.136;2022-11-15T06:25:10;0.73;;;0.60;;
12567;SDS011;6349;50.904;6.136;2022-11-15T06:27:11;0.70;;;0.70;;
12567;SDS011;6349;50.904;6.136;2022-11-15T06:29:11;0.63;;;0.63;;
12567;SDS011;6349;50.904;6.136;2022-11-15T06:31:12;1.23;;;0.60;;
12567;SDS011;6349;50.904;6.136;2022-11-15T06:33:12;0.83;;;0.70;;
12567;SDS011;6349;50.904;6.136;2022-11-15T06:35:13;1.20;;;0.80;;
12567;SDS011;6349;50.904;6.136;2022-11-15T06:37:14;0.60;;;0.60;;
12567;SDS011;6349;50.904;6.136;2022-11-15T06:39:14;0.77;;;0.60;;
12567;SDS011;6349;50.904;6.136;2022-11-15T06:41:15;0.60;;;0.60;;
12567;SDS011;6349;50.904;6.136;2022-11-15T06:43:16;1.13;;;0.50;;
12567;SDS011;6349;50.904;6.136;2022-11-15T06:45:17;0.90;;;0.90;;
12567;SDS011;6349;50.904;6.136;2022-11-15T06:47:17;1.40;;;0.87;;
12567;SDS011;6349;50.904;6.136;2022-11-15T06:49:18;0.70;;;0.70;;
12567;SDS011;6349;50.904;6.136;2022-11-15T06:51:19;1.50;;;0.70;;
12567;SDS011;6349;50.904;6.136;2022-11-15T06:53:19;0.67;;;0.67;;
12567;SDS011;6349;50.904;6.136;2022-11-15T06:55:20;0.60;;;0.60;;
12567;SDS011;6349;50.904;6.136;2022-11-15T06:57:21;1.30;;;0.70;;
12567;SDS011;6349;50.904;6.136;2022-11-15T06:59:21;0.80;;;0.70;;
12567;SDS011;6349;50.904;6.136;2022-11-15T07:01:22;0.97;;;0.87;;
12567;SDS011;6349;50.904;6.136;2022-11-15T07:03:23;1.00;;;0.90;;
12567;SDS011;6349;50.904;6.136;2022-11-15T07:05:23;1.13;;;1.00;;
12567;SDS011;6349;50.904;6.136;2022-11-15T07:07:24;1.50;;;1.00;;
12567;SDS011;6349;50.904;6.136;2022-11-15T07:09:24;0.83;;;0.83;;
12567;SDS011;6349;50.904;6.136;2022-11-15T07:11:26;1.40;;;1.10;;
12567;SDS011;6349;50.904;6.136;2022-11-15T07:13:27;1.20;;;1.10;;
12567;SDS011;6349;50.904;6.136;2022-11-15T07:15:28;1.30;;;1.10;;
12567;SDS011;6349;50.904;6.136;2022-11-15T07:17:29;1.10;;;0.80;;
12567;SDS011;6349;50.904;6.136;2022-11-15T07:19:29;1.50;;;0.80;;
12567;SDS011;6349;50.904;6.136;2022-11-15T07:21:30;1.13;;;0.80;;
12567;SDS011;6349;50.904;6.136;2022-11-15T07:23:32;0.70;;;0.70;;
12567;SDS011;6349;50.904;6.136;2022-11-15T07:25:33;0.97;;;0.73;;
12567;SDS011;6349;50.904;6.136;2022-11-15T07:27:34;1.40;;;0.60;;
12567;SDS011;6349;50.904;6.136;2022-11-15T07:29:35;0.60;;;0.60;;
12567;SDS011;6349;50.904;6.136;2022-11-15T07:31:35;0.90;;;0.80;;
12567;SDS011;6349;50.904;6.136;2022-11-15T07:33:36;1.27;;;1.00;;
12567;SDS011;6349;50.904;6.136;2022-11-15T07:35:37;0.80;;;0.80;;
12567;SDS011;6349;50.904;6.136;2022-11-15T07:37:37;0.80;;;0.70;;
12567;SDS011;6349;50.904;6.136;2022-11-15T07:39:38;0.60;;;0.60;;
12567;SDS011;6349;50.904;6.136;2022-11-15T07:41:38;0.70;;;0.70;;
12567;SDS011;6349;50.904;6.136;2022-11-15T07:43:39;0.77;;;0.60;;
12567;SDS011;6349;50.904;6.136;2022-11-15T07:45:40;1.80;;;0.93;;
12567;SDS011;6349;50.904;6.136;2022-11-15T07:47:45;1.10;;;0.77;;
12567;SDS011;6349;50.904;6.136;2022-11-15T07:49:47;1.40;;;1.00;;
12567;SDS011;6349;50.904;6.136;2022-11-15T07:51:48;2.43;;;1.00;;
12567;SDS011;6349;50.904;6.136;2022-11-15T07:53:48;1.77;;;1.00;;
12567;SDS011;6349;50.904;6.136;2022-11-15T07:55:49;1.00;;;0.90;;
12567;SDS011;6349;50.904;6.136;2022-11-15T07:57:50;1.43;;;1.03;;
12567;SDS011;6349;50.904;6.136;2022-11-15T07:59:50;1.77;;;1.13;;
12567;SDS011;6349;50.904;6.136;2022-11-15T08:01:51;1.30;;;0.97;;
12567;SDS011;6349;50.904;6.136;2022-11-15T08:03:51;1.00;;;0.90;;
12567;SDS011;6349;50.904;6.136;2022-11-15T08:05:52;1.00;;;0.90;;
12567;SDS011;6349;50.904;6.136;2022-11-15T08:07:54;2.40;;;1.17;;
12567;SDS011;6349;50.904;6.136;2022-11-15T08:09:55;2.60;;;0.90;;
12567;SDS011;6349;50.904;6.136;2022-11-15T08:11:56;2.23;;;1.10;;
12567;SDS011;6349;50.904;6.136;2022-11-15T08:13:56;1.20;;;1.10;;
12567;SDS011;6349;50.904;6.136;2022-11-15T08:16:00;3.43;;;1.13;;
12567;SDS011;6349;50.904;6.136;2022-11-15T08:18:02;1.60;;;1.00;;
12567;SDS011;6349;50.904;6.136;2022-11-15T08:20:05;2.00;;;0.97;;
12567;SDS011;6349;50.904;6.136;2022-11-15T08:22:06;1.00;;;0.90;;
12567;SDS011;6349;50.904;6.136;2022-11-15T08:24:08;1.30;;;1.00;;
12567;SDS011;6349;50.904;6.136;2022-11-15T08:26:10;1.60;;;1.03;;
12567;SDS011;6349;50.904;6.136;2022-11-15T08:28:11;1.07;;;0.70;;
12567;SDS011;6349;50.904;6.136;2022-11-15T08:30:12;1.40;;;0.97;;
12567;SDS011;6349;50.904;6.136;2022-11-15T08:32:13;2.60;;;1.20;;
12567;SDS011;6349;50.904;6.136;2022-11-15T08:34:14;1.50;;;0.90;;
12567;SDS011;6349;50.904;6.136;2022-11-15T08:36:15;1.97;;;0.90;;
12567;SDS011;6349;50.904;6.136;2022-11-15T08:38:16;3.60;;;1.10;;
12567;SDS011;6349;50.904;6.136;2022-11-15T08:40:17;2.27;;;1.10;;
12567;SDS011;6349;50.904;6.136;2022-11-15T08:42:18;1.93;;;0.80;;
12567;SDS011;6349;50.904;6.136;2022-11-15T08:44:19;1.70;;;0.80;;
12567;SDS011;6349;50.904;6.136;2022-11-15T08:46:19;1.63;;;0.90;;
12567;SDS011;6349;50.904;6.136;2022-11-15T08:48:20;2.50;;;1.00;;
12567;SDS011;6349;50.904;6.136;2022-11-15T08:50:20;2.47;;;0.93;;
12567;SDS011;6349;50.904;6.136;2022-11-15T08:52:21;1.70;;;1.10;;
12567;SDS011;6349;50.904;6.136;2022-11-15T08:54:22;1.53;;;0.90;;
12567;SDS011;6349;50.904;6.136;2022-11-15T08:56:22;3.20;;;0.90;;
12567;SDS011;6349;50.904;6.136;2022-11-15T08:58:23;2.07;;;1.00;;
12567;SDS011;6349;50.904;6.136;2022-11-15T09:00:24;1.80;;;1.00;;
12567;SDS011;6349;50.904;6.136;2022-11-15T09:02:25;1.40;;;1.07;;
12567;SDS011;6349;50.904;6.136;2022-11-15T09:04:25;2.13;;;1.10;;
12567;SDS011;6349;50.904;6.136;2022-11-15T09:06:26;2.30;;;1.10;;
12567;SDS011;6349;50.904;6.136;2022-11-15T09:08:29;1.10;;;1.00;;
12567;SDS011;6349;50.904;6.136;2022-11-15T09:10:31;3.03;;;1.20;;
12567;SDS011;6349;50.904;6.136;2022-11-15T09:12:31;1.80;;;1.00;;
12567;SDS011;6349;50.904;6.136;2022-11-15T09:14:32;1.13;;;0.90;;
12567;SDS011;6349;50.904;6.136;2022-11-15T09:16:34;2.47;;;0.90;;
12567;SDS011;6349;50.904;6.136;2022-11-15T09:18:34;1.07;;;0.90;;
12567;SDS011;6349;50.904;6.136;2022-11-15T09:20:35;1.23;;;0.70;;
12567;SDS011;6349;50.904;6.136;2022-11-15T09:22:36;1.53;;;0.80;;
12567;SDS011;6349;50.904;6.136;2022-11-15T09:24:38;2.33;;;1.03;;
12567;SDS011;6349;50.904;6.136;2022-11-15T09:26:39;1.87;;;0.80;;
12567;SDS011;6349;50.904;6.136;2022-11-15T09:28:40;2.07;;;0.90;;
12567;SDS011;6349;50.904;6.136;2022-11-15T09:30:42;1.60;;;0.80;;
12567;SDS011;6349;50.904;6.136;2022-11-15T09:32:43;2.07;;;0.67;;
12567;SDS011;6349;50.904;6.136;2022-11-15T09:34:43;1.20;;;1.00;;
12567;SDS011;6349;50.904;6.136;2022-11-15T09:36:44;0.90;;;0.70;;
12567;SDS011;6349;50.904;6.136;2022-11-15T09:38:44;2.23;;;0.70;;
12567;SDS011;6349;50.904;6.136;2022-11-15T09:40:46;1.37;;;0.73;;
12567;SDS011;6349;50.904;6.136;2022-11-15T09:42:59;1.73;;;1.00;;
12567;SDS011;6349;50.904;6.136;2022-11-15T09:46:28;2.10;;;0.90;;
12567;SDS011;6349;50.904;6.136;2022-11-15T09:50:38;0.97;;;0.70;;
12567;SDS011;6349;50.904;6.136;2022-11-15T09:52:44;2.37;;;0.90;;
12567;SDS011;6349;50.904;6.136;2022-11-15T09:54:47;3.83;;;0.87;;
12567;SDS011;6349;50.904;6.136;2022-11-15T09:56:49;1.50;;;0.80;;
12567;SDS011;6349;50.904;6.136;2022-11-15T09:59:03;2.20;;;0.90;;
12567;SDS011;6349;50.904;6.136;2022-11-15T10:01:35;2.10;;;0.93;;
12567;SDS011;6349;50.904;6.136;2022-11-15T10:03:59;2.23;;;0.63;;
12567;SDS011;6349;50.904;6.136;2022-11-15T10:06:03;0.70;;;0.70;;
12567;SDS011;6349;50.904;6.136;2022-11-15T10:08:13;1.43;;;0.70;;
12567;SDS011;6349;50.904;6.136;2022-11-15T10:10:41;2.77;;;0.80;;
12567;SDS011;6349;50.904;6.136;2022-11-15T10:12:45;2.27;;;1.00;;
12567;SDS011;6349;50.904;6.136;2022-11-15T10:14:49;0.67;;;0.67;;
12567;SDS011;6349;50.904;6.136;2022-11-15T10:17:01;0.77;;;0.60;;
12567;SDS011;6349;50.904;6.136;2022-11-15T10:24:36;1.67;;;0.60;;
12567;SDS011;6349;50.904;6.136;2022-11-15T10:26:48;2.23;;;0.83;;
12567;SDS011;6349;50.904;6.136;2022-11-15T10:28:51;1.53;;;0.67;;
12567;SDS011;6349;50.904;6.136;2022-11-15T10:40:21;1.87;;;0.70;;
12567;SDS011;6349;50.904;6.136;2022-11-15T10:49:22;2.00;;;0.60;;
12567;SDS011;6349;50.904;6.136;2022-11-15T10:51:26;2.63;;;0.83;;
12567;SDS011;6349;50.904;6.136;2022-11-15T10:53:31;1.10;;;0.53;;
12567;SDS011;6349;50.904;6.136;2022-11-15T10:55:37;1.77;;;1.07;;
12567;SDS011;6349;50.904;6.136;2022-11-15T10:57:48;0.87;;;0.70;;
12567;SDS011;6349;50.904;6.136;2022-11-15T10:59:53;0.90;;;0.67;;
12567;SDS011;6349;50.904;6.136;2022-11-15T11:01:55;1.10;;;0.67;;
12567;SDS011;6349;50.904;6.136;2022-11-15T11:04:01;1.33;;;0.60;;
12567;SDS011;6349;50.904;6.136;2022-11-15T11:08:22;2.37;;;0.80;;
12567;SDS011;6349;50.904;6.136;2022-11-15T11:10:24;2.13;;;0.90;;
12567;SDS011;6349;50.904;6.136;2022-11-15T11:12:27;0.90;;;0.53;;
12567;SDS011;6349;50.904;6.136;2022-11-15T11:14:31;2.27;;;0.80;;
12567;SDS011;6349;50.904;6.136;2022-11-15T11:16:41;0.63;;;0.63;;
12567;SDS011;6349;50.904;6.136;2022-11-15T11:21:39;1.40;;;0.80;;
12567;SDS011;6349;50.904;6.136;2022-11-15T11:24:07;0.87;;;0.60;;
12567;SDS011;6349;50.904;6.136;2022-11-15T11:26:35;1.60;;;0.70;;
12567;SDS011;6349;50.904;6.136;2022-11-15T11:34:13;3.13;;;0.80;;
12567;SDS011;6349;50.904;6.136;2022-11-15T11:36:39;2.67;;;0.70;;
12567;SDS011;6349;50.904;6.136;2022-11-15T11:39:09;1.27;;;0.70;;
12567;SDS011;6349;50.904;6.136;2022-11-15T11:41:24;1.90;;;0.60;;
12567;SDS011;6349;50.904;6.136;2022-11-15T11:43:55;2.17;;;0.63;;
12567;SDS011;6349;50.904;6.136;2022-11-15T11:46:38;1.33;;;0.73;;
12567;SDS011;6349;50.904;6.136;2022-11-15T11:48:56;2.53;;;0.83;;
12567;SDS011;6349;50.904;6.136;2022-11-15T11:51:28;1.33;;;0.70;;
12567;SDS011;6349;50.904;6.136;2022-11-15T11:53:41;2.73;;;0.93;;
12567;SDS011;6349;50.904;6.136;2022-11-15T11:55:53;1.50;;;0.70;;
12567;SDS011;6349;50.904;6.136;2022-11-15T11:58:02;0.90;;;0.60;;
12567;SDS011;6349;50.904;6.136;2022-11-15T12:00:14;2.30;;;0.97;;
12567;SDS011;6349;50.904;6.136;2022-11-15T12:02:37;3.73;;;0.90;;
12567;SDS011;6349;50.904;6.136;2022-11-15T12:04:42;1.17;;;0.67;;
12567;SDS011;6349;50.904;6.136;2022-11-15T12:06:49;3.47;;;0.90;;
12567;SDS011;6349;50.904;6.136;2022-11-15T12:08:53;1.40;;;0.80;;
12567;SDS011;6349;50.904;6.136;2022-11-15T12:11:14;1.67;;;0.70;;
12567;SDS011;6349;50.904;6.136;2022-11-15T12:13:21;2.93;;;0.73;;
12567;SDS011;6349;50.904;6.136;2022-11-15T12:15:27;1.50;;;0.80;;
12567;SDS011;6349;50.904;6.136;2022-11-15T12:17:32;2.57;;;1.00;;
12567;SDS011;6349;50.904;6.136;2022-11-15T12:19:33;2.27;;;0.80;;
12567;SDS011;6349;50.904;6.136;2022-11-15T12:21:42;2.87;;;1.13;;
12567;SDS011;6349;50.904;6.136;2022-11-15T12:24:04;1.83;;;1.20;;
12567;SDS011;6349;50.904;6.136;2022-11-15T12:26:20;2.20;;;1.10;;
12567;SDS011;6349;50.904;6.136;2022-11-15T12:28:42;2.73;;;1.00;;
12567;SDS011;6349;50.904;6.136;2022-11-15T12:30:51;1.27;;;0.70;;
12567;SDS011;6349;50.904;6.136;2022-11-15T12:32:56;2.20;;;0.90;;
12567;SDS011;6349;50.904;6.136;2022-11-15T12:34:59;1.93;;;0.83;;
12567;SDS011;6349;50.904;6.136;2022-11-15T12:37:01;1.87;;;0.77;;
12567;SDS011;6349;50.904;6.136;2022-11-15T12:40:03;0.97;;;0.87;;
12567;SDS011;6349;50.904;6.136;2022-11-15T12:49:01;1.83;;;0.90;;
12567;SDS011;6349;50.904;6.136;2022-11-15T12:51:07;1.50;;;1.03;;
12567;SDS011;6349;50.904;6.136;2022-11-15T12:55:35;2.30;;;1.27;;
12567;SDS011;6349;50.904;6.136;2022-11-15T12:57:40;1.63;;;1.20;;
12567;SDS011;6349;50.904;6.136;2022-11-15T13:02:23;2.67;;;1.23;;
12567;SDS011;6349;50.904;6.136;2022-11-15T13:04:27;1.10;;;0.90;;
12567;SDS011;6349;50.904;6.136;2022-11-15T13:06:37;1.20;;;1.00;;
12567;SDS011;6349;50.904;6.136;2022-11-15T13:08:45;1.83;;;1.03;;
12567;SDS011;6349;50.904;6.136;2022-11-15T13:10:47;1.27;;;1.17;;
12567;SDS011;6349;50.904;6.136;2022-11-15T13:12:49;2.23;;;1.10;;
12567;SDS011;6349;50.904;6.136;2022-11-15T13:17:26;1.57;;;0.93;;
12567;SDS011;6349;50.904;6.136;2022-11-15T13:19:29;2.47;;;0.90;;
12567;SDS011;6349;50.904;6.136;2022-11-15T13:21:30;1.10;;;0.90;;
12567;SDS011;6349;50.904;6.136;2022-11-15T13:23:52;1.37;;;0.90;;
12567;SDS011;6349;50.904;6.136;2022-11-15T13:25:57;1.80;;;0.90;;
12567;SDS011;6349;50.904;6.136;2022-11-15T13:30:21;1.23;;;0.90;;
12567;SDS011;6349;50.904;6.136;2022-11-15T13:32:25;1.40;;;1.10;;
12567;SDS011;6349;50.904;6.136;2022-11-15T13:34:28;2.03;;;1.17;;
12567;SDS011;6349;50.904;6.136;2022-11-15T13:36:33;2.23;;;1.00;;
12567;SDS011;6349;50.904;6.136;2022-11-15T13:38:36;1.93;;;1.20;;
12567;SDS011;6349;50.904;6.136;2022-11-15T13:40:38;1.10;;;0.90;;
12567;SDS011;6349;50.904;6.136;2022-11-15T13:42:39;1.43;;;1.30;;
12567;SDS011;6349;50.904;6.136;2022-11-15T13:44:40;1.83;;;0.90;;